Decoded Metar for LFLB (CHAMBERY in FRANCE) (IATA:CMF) | Meteo·Mobile Aviation Weather
aviador You're here:

LFLB Decoded Metar

CHAMBERY in FRANCE
Report Time2019-02-17 19:30:00
UTC Time2019-02-17 19:37:50
Flight Rules vfr VFR
Wind180° at 03 kt
W.Decomp.*RWY 18: 3.0 kt HW -0 kt LCW
W.Rank180° ranks 6
Current wind is below 180° avg. (4.8)
Visibility9999 m
Phenomena:N/A
Clouds:N/A
Expected CloudBase > 1,600 ft AGL from Temp-Dew spread
CeilingNone
Temp04°C (ISA -9)
Dew Point00°C (75% RH)
AAT0.9°C
QNH1024 hPa
Density Alt-643 ft
Elevation784 ft
Report Wrong Elevation
Raw Report
METAR LFLB 171930Z AUTO 18003KT CAVOK 04/00 Q1024 NOSIG=

Extra information for LFLB:More info

Metar Taf Metar & Taf Last 4 Metars F.Rules Stats Wind Profile Meteogram Temp Stats Airport Information Weather charts Add Link Nearby VenuesMetar ALERT Operation Metar Decoded Social comments